createdAt,value
2023-04-06T00:00:40.551Z,49.37
2023-04-06T00:03:10.387Z,44.80
2023-04-06T00:05:38.838Z,43.10
2023-04-06T00:08:07.544Z,44.00
2023-04-06T00:10:36.088Z,43.53
2023-04-06T00:13:04.685Z,44.70
2023-04-06T00:15:33.259Z,47.73
2023-04-06T00:18:01.865Z,44.43
2023-04-06T00:20:31.892Z,46.90
2023-04-06T00:23:00.616Z,45.73
2023-04-06T00:25:29.207Z,39.93
2023-04-06T00:27:58.061Z,43.67
2023-04-06T00:30:26.628Z,48.43
2023-04-06T00:32:55.172Z,44.53
2023-04-06T00:35:23.767Z,49.47
2023-04-06T00:37:53.723Z,49.57
2023-04-06T00:40:22.250Z,44.00
2023-04-06T00:42:50.672Z,44.57
2023-04-06T00:45:19.235Z,43.53
2023-04-06T00:47:48.183Z,42.93
2023-04-06T00:50:16.857Z,47.23
2023-04-06T00:52:45.570Z,45.17
2023-04-06T00:55:15.439Z,42.93
2023-04-06T00:57:43.946Z,46.37
2023-04-06T01:00:13.794Z,43.50
2023-04-06T01:02:42.432Z,46.23
2023-04-06T01:05:11.097Z,45.53
2023-04-06T01:07:39.905Z,50.13
2023-04-06T01:10:09.109Z,44.43
2023-04-06T01:12:39.873Z,42.27
2023-04-06T01:15:09.782Z,49.87
2023-04-06T01:17:38.474Z,47.43
2023-04-06T01:20:08.046Z,48.67
2023-04-06T01:22:37.833Z,44.17
2023-04-06T01:25:06.798Z,42.27
2023-04-06T01:27:35.628Z,45.33
2023-04-06T01:30:04.018Z,42.60
2023-04-06T01:32:32.495Z,43.73
2023-04-06T01:35:01.457Z,43.53
2023-04-06T01:37:31.338Z,43.23
2023-04-06T01:40:01.266Z,47.60
2023-04-06T01:42:31.211Z,46.87
2023-04-06T01:44:59.717Z,46.67
2023-04-06T01:47:28.512Z,50.27
2023-04-06T01:49:57.177Z,46.87
2023-04-06T01:52:25.789Z,47.67
2023-04-06T01:54:54.622Z,48.53
2023-04-06T01:57:24.603Z,48.50
2023-04-06T01:59:53.183Z,50.30
2023-04-06T02:02:21.864Z,51.77
2023-04-06T02:04:50.720Z,49.60
2023-04-06T02:07:19.460Z,49.07
2023-04-06T02:09:47.866Z,48.63
2023-04-06T02:12:16.383Z,47.03
2023-04-06T02:14:46.156Z,50.27
2023-04-06T02:17:14.718Z,51.33
2023-04-06T02:19:43.401Z,50.83
2023-04-06T02:22:12.087Z,51.23
2023-04-06T02:24:40.625Z,51.63
2023-04-06T02:27:09.386Z,60.13
2023-04-06T02:29:38.035Z,49.63
2023-04-06T02:32:08.268Z,52.10
2023-04-06T02:34:36.893Z,52.60
2023-04-06T02:37:05.779Z,52.83
2023-04-06T02:39:34.184Z,53.83
2023-04-06T02:42:02.634Z,54.83
2023-04-06T02:44:31.337Z,54.50
2023-04-06T02:47:00.335Z,50.47
2023-04-06T02:49:30.014Z,56.13
2023-04-06T02:51:58.550Z,49.57
2023-04-06T02:54:27.006Z,52.80
2023-04-06T02:56:55.502Z,52.03
2023-04-06T02:59:24.074Z,49.93
2023-04-06T03:01:52.554Z,52.03
2023-04-06T03:04:23.409Z,51.53
2023-04-06T03:06:53.479Z,50.80
2023-04-06T03:09:22.106Z,54.27
2023-04-06T03:11:50.785Z,53.70
2023-04-06T03:14:22.638Z,49.87
2023-04-06T03:16:51.442Z,60.77
2023-04-06T03:19:19.992Z,51.97
2023-04-06T03:21:48.463Z,56.67
2023-04-06T03:24:18.344Z,51.17
2023-04-06T03:26:47.072Z,54.97
2023-04-06T03:29:15.899Z,57.07
2023-04-06T03:31:44.623Z,50.73
2023-04-06T03:34:13.263Z,53.30
2023-04-06T03:36:41.722Z,49.87
2023-04-06T03:39:10.439Z,53.87
2023-04-06T03:41:40.369Z,50.03
2023-04-06T03:44:08.761Z,49.37
2023-04-06T03:46:37.531Z,48.23
2023-04-06T03:49:06.324Z,46.50
2023-04-06T03:51:34.907Z,45.17
2023-04-06T03:54:03.333Z,47.67
2023-04-06T03:56:32.236Z,47.30
2023-04-06T03:59:03.099Z,49.13
2023-04-06T04:01:31.731Z,49.30
2023-04-06T04:04:00.680Z,46.27
2023-04-06T04:06:29.729Z,47.73
2023-04-06T04:08:58.203Z,52.70
2023-04-06T04:11:26.816Z,48.10
2023-04-06T04:13:55.389Z,49.37
2023-04-06T04:16:25.284Z,45.67
2023-04-06T04:18:53.759Z,44.60
2023-04-06T04:21:22.302Z,46.63
2023-04-06T04:23:50.814Z,45.53
2023-04-06T04:26:19.548Z,40.27
2023-04-06T04:28:48.191Z,42.67
2023-04-06T04:31:18.761Z,45.37
2023-04-06T04:33:48.474Z,41.47
2023-04-06T04:36:17.217Z,41.83
2023-04-06T04:38:45.757Z,41.43
2023-04-06T04:41:14.559Z,40.87
2023-04-06T04:43:43.213Z,37.83
2023-04-06T04:46:11.784Z,37.80
2023-04-06T04:48:40.850Z,32.93
2023-04-06T04:51:10.529Z,32.70
2023-04-06T04:53:38.978Z,31.40
2023-04-06T04:56:07.600Z,27.53
2023-04-06T04:58:36.952Z,26.53
2023-04-06T05:01:05.649Z,26.70
2023-04-06T05:03:36.700Z,24.40
2023-04-06T05:06:05.505Z,22.03
2023-04-06T05:08:35.648Z,23.97
2023-04-06T05:11:04.150Z,21.90
2023-04-06T05:13:32.942Z,23.07
2023-04-06T05:16:01.504Z,21.17
2023-04-06T05:18:30.595Z,23.43
2023-04-06T05:20:59.206Z,22.00
2023-04-06T05:23:27.890Z,20.57
2023-04-06T05:25:57.748Z,21.20
2023-04-06T05:28:26.565Z,21.10
2023-04-06T05:30:56.049Z,18.43
2023-04-06T05:33:24.614Z,19.80
2023-04-06T05:35:53.115Z,21.63
2023-04-06T05:38:21.640Z,19.87
2023-04-06T05:40:50.062Z,20.57
2023-04-06T05:43:23.232Z,19.53
2023-04-06T05:45:54.598Z,17.43
2023-04-06T05:48:23.567Z,19.43
2023-04-06T05:50:52.253Z,19.93
2023-04-06T05:53:22.045Z,20.60
2023-04-06T05:55:50.951Z,21.27
2023-04-06T05:58:21.666Z,18.30
2023-04-06T06:00:51.592Z,19.87
2023-04-06T06:03:22.844Z,17.73
2023-04-06T06:05:51.506Z,15.80
2023-04-06T06:08:22.064Z,18.80
2023-04-06T06:10:59.853Z,19.70
2023-04-06T06:13:28.519Z,24.30
2023-04-06T06:16:01.911Z,21.73
2023-04-06T06:18:30.648Z,22.40
2023-04-06T06:20:59.079Z,19.07
2023-04-06T06:23:27.468Z,20.63
2023-04-06T06:26:01.955Z,19.73
2023-04-06T06:28:31.228Z,22.13
2023-04-06T06:31:02.120Z,21.87
2023-04-06T06:33:30.657Z,21.20
2023-04-06T06:35:59.189Z,19.80
2023-04-06T06:38:28.014Z,20.93
2023-04-06T06:40:56.637Z,20.57
2023-04-06T06:43:29.275Z,21.47
2023-04-06T06:45:57.811Z,20.23
2023-04-06T06:48:28.747Z,24.03
2023-04-06T06:50:57.255Z,21.57
2023-04-06T06:53:25.990Z,21.13
2023-04-06T06:55:59.962Z,22.43
2023-04-06T06:58:31.707Z,22.53
2023-04-06T07:01:00.314Z,24.83
2023-04-06T07:03:31.008Z,21.83
2023-04-06T07:05:59.516Z,22.93
2023-04-06T07:08:28.266Z,29.80
2023-04-06T07:10:57.950Z,24.67
2023-04-06T07:13:28.670Z,28.83
2023-04-06T07:15:57.147Z,30.70
2023-04-06T07:18:27.927Z,32.00
2023-04-06T07:20:57.703Z,27.47
2023-04-06T07:23:29.141Z,27.67
2023-04-06T07:25:57.588Z,23.97
2023-04-06T07:28:26.597Z,28.73
2023-04-06T07:30:55.502Z,24.20
2023-04-06T07:33:30.871Z,20.93
2023-04-06T07:36:02.901Z,23.27
2023-04-06T07:38:34.217Z,32.23
2023-04-06T07:41:04.877Z,26.43
2023-04-06T07:43:33.680Z,21.83
2023-04-06T07:46:03.348Z,21.03
2023-04-06T07:48:32.320Z,25.80
2023-04-06T07:51:05.685Z,26.80
2023-04-06T07:53:34.228Z,29.93
2023-04-06T07:56:02.697Z,31.33
2023-04-06T07:58:35.894Z,33.63
2023-04-06T08:01:04.680Z,27.37
2023-04-06T08:03:35.907Z,29.03
2023-04-06T08:06:06.877Z,28.93
2023-04-06T08:08:35.778Z,30.37
2023-04-06T08:11:04.698Z,27.60
2023-04-06T08:13:33.209Z,29.67
2023-04-06T08:16:02.151Z,34.10
2023-04-06T08:18:31.098Z,36.83
2023-04-06T08:20:59.523Z,31.60
2023-04-06T08:23:29.316Z,32.17
2023-04-06T08:26:00.825Z,31.17
2023-04-06T08:28:29.501Z,34.57
2023-04-06T08:30:57.969Z,31.23
2023-04-06T08:33:26.544Z,35.23
2023-04-06T08:35:55.216Z,31.30
2023-04-06T08:38:24.115Z,25.03
2023-04-06T08:40:53.906Z,28.97
2023-04-06T08:43:25.612Z,29.10
2023-04-06T08:45:54.209Z,27.07
2023-04-06T08:48:25.078Z,23.63
2023-04-06T08:50:53.858Z,28.20
2023-04-06T08:53:24.303Z,27.13
2023-04-06T08:55:54.086Z,27.17
2023-04-06T08:58:35.162Z,27.93
2023-04-06T09:01:10.330Z,26.17
2023-04-06T09:03:41.570Z,30.30
2023-04-06T09:06:12.378Z,22.50
2023-04-06T09:08:42.635Z,30.17
2023-04-06T09:11:12.864Z,24.53
2023-04-06T09:13:48.535Z,24.17
2023-04-06T09:16:17.845Z,26.03
2023-04-06T09:18:46.565Z,25.97
2023-04-06T09:21:15.499Z,32.37
2023-04-06T09:23:44.042Z,27.27
2023-04-06T09:26:15.964Z,33.47
2023-04-06T09:28:48.844Z,29.20
2023-04-06T09:31:18.809Z,30.80
2023-04-06T09:33:47.975Z,23.43
2023-04-06T09:36:17.077Z,21.30
2023-04-06T09:38:56.311Z,21.57
2023-04-06T09:41:27.544Z,23.23
2023-04-06T09:44:04.891Z,24.53
2023-04-06T09:46:46.590Z,25.70
2023-04-06T09:49:25.077Z,23.57
2023-04-06T09:51:58.219Z,18.77
2023-04-06T09:54:30.716Z,22.43
2023-04-06T09:57:11.264Z,21.43
2023-04-06T09:59:51.153Z,21.20
2023-04-06T10:02:25.978Z,19.77
2023-04-06T10:05:01.918Z,17.07
2023-04-06T10:07:32.398Z,18.50
2023-04-06T10:10:02.288Z,24.30
2023-04-06T10:12:32.230Z,26.03
2023-04-06T10:15:01.009Z,23.80
2023-04-06T10:17:29.570Z,15.90
2023-04-06T10:20:02.291Z,19.97
2023-04-06T10:22:41.229Z,19.93
2023-04-06T10:25:11.224Z,21.53
2023-04-06T10:27:41.190Z,22.20
2023-04-06T10:30:10.296Z,20.93
2023-04-06T10:32:40.915Z,19.80
2023-04-06T10:35:10.500Z,14.07
2023-04-06T10:37:54.338Z,20.77
2023-04-06T10:40:25.661Z,18.30
2023-04-06T10:42:58.428Z,20.17
2023-04-06T10:45:28.343Z,21.30
2023-04-06T10:47:57.368Z,22.77
2023-04-06T10:50:26.421Z,21.90
2023-04-06T10:53:02.259Z,21.47
2023-04-06T10:55:31.672Z,21.17
2023-04-06T10:58:01.398Z,22.17
2023-04-06T11:00:39.658Z,21.53
2023-04-06T11:03:11.880Z,19.17
2023-04-06T11:05:40.470Z,21.97
2023-04-06T11:08:09.941Z,18.77
2023-04-06T11:10:38.578Z,20.53
2023-04-06T11:13:08.576Z,23.00
2023-04-06T11:15:38.952Z,21.87
2023-04-06T11:18:08.347Z,25.37
2023-04-06T11:20:37.022Z,23.20
2023-04-06T11:23:05.507Z,25.87
2023-04-06T11:25:34.065Z,21.50
2023-04-06T11:28:02.683Z,24.97
2023-04-06T11:30:33.098Z,21.90
2023-04-06T11:33:04.478Z,24.33
2023-04-06T11:35:35.028Z,21.57
2023-04-06T11:38:06.226Z,21.30
2023-04-06T11:40:34.722Z,20.03
2023-04-06T11:43:03.276Z,25.47
2023-04-06T11:45:42.358Z,22.13
2023-04-06T11:48:22.107Z,19.40
2023-04-06T11:50:57.245Z,19.93
2023-04-06T11:53:25.908Z,16.43
2023-04-06T11:55:54.606Z,18.03
2023-04-06T11:58:23.000Z,17.63
2023-04-06T12:00:52.688Z,13.40
2023-04-06T12:03:21.169Z,12.63
2023-04-06T12:05:50.577Z,15.47
2023-04-06T12:08:19.171Z,15.20
2023-04-06T12:10:47.721Z,13.47
2023-04-06T12:13:16.602Z,12.10
2023-04-06T12:15:45.597Z,11.80
2023-04-06T12:18:15.643Z,12.60
2023-04-06T12:20:44.668Z,9.17
2023-04-06T12:23:13.296Z,9.13
2023-04-06T12:25:42.235Z,8.67
2023-04-06T12:28:10.804Z,9.47
2023-04-06T12:30:39.631Z,8.67
2023-04-06T12:33:08.110Z,8.03
2023-04-06T12:35:38.252Z,8.03
2023-04-06T12:38:06.957Z,7.87
2023-04-06T12:40:39.648Z,8.57
2023-04-06T12:43:09.778Z,8.50
2023-04-06T12:45:38.240Z,8.50
2023-04-06T12:48:07.310Z,8.70
2023-04-06T12:50:37.458Z,9.40
2023-04-06T12:53:06.222Z,9.60
2023-04-06T12:55:36.566Z,7.77
2023-04-06T12:58:05.181Z,10.00
2023-04-06T13:00:33.722Z,18.23
2023-04-06T13:03:02.170Z,18.17
2023-04-06T13:05:32.395Z,18.47
2023-04-06T13:08:03.572Z,16.00
2023-04-06T13:10:32.073Z,27.70
2023-04-06T13:13:01.025Z,24.57
2023-04-06T13:15:29.550Z,19.53
2023-04-06T13:17:58.467Z,23.20
2023-04-06T13:20:26.967Z,19.90
2023-04-06T13:22:55.637Z,18.60
2023-04-06T13:25:25.674Z,21.40
2023-04-06T13:27:54.409Z,24.87
2023-04-06T13:30:23.752Z,21.53
2023-04-06T13:32:52.329Z,6.80
2023-04-06T13:35:21.486Z,0.77
2023-04-06T13:37:50.394Z,0.20
2023-04-06T13:40:19.022Z,0.23
2023-04-06T13:42:49.548Z,0.43
2023-04-06T13:45:18.069Z,0.10
2023-04-06T13:47:46.909Z,0.43
2023-04-06T13:50:15.483Z,0.10
2023-04-06T13:52:44.100Z,0.10
2023-04-06T13:55:12.558Z,0.30
2023-04-06T13:57:41.269Z,0.10
2023-04-06T14:00:15.573Z,0.13
2023-04-06T14:02:44.146Z,0.50
2023-04-06T14:05:13.152Z,0.33
2023-04-06T14:07:41.863Z,2.23
2023-04-06T14:10:14.896Z,0.00
2023-04-06T14:12:44.833Z,0.00
2023-04-06T14:15:14.890Z,0.47
2023-04-06T14:17:43.464Z,0.00
2023-04-06T14:20:15.062Z,0.07
2023-04-06T14:22:44.077Z,0.00
2023-04-06T14:25:13.666Z,0.40
2023-04-06T14:27:42.539Z,0.10
2023-04-06T14:30:11.859Z,0.13
2023-04-06T14:32:41.905Z,0.40
2023-04-06T14:35:10.963Z,0.20
2023-04-06T14:37:39.707Z,0.10
2023-04-06T14:40:09.187Z,0.20
2023-04-06T14:42:38.527Z,0.20
2023-04-06T14:45:08.287Z,0.40
2023-04-06T14:47:37.034Z,0.10
2023-04-06T14:50:07.985Z,0.37
2023-04-06T14:52:37.404Z,0.63
2023-04-06T14:55:06.450Z,0.40
2023-04-06T14:57:34.890Z,0.00
2023-04-06T15:00:04.435Z,0.30
2023-04-06T15:02:34.470Z,0.10
2023-04-06T15:05:03.943Z,0.17
2023-04-06T15:07:33.915Z,0.00
2023-04-06T15:10:02.525Z,0.10
2023-04-06T15:12:31.623Z,0.30
2023-04-06T15:15:01.913Z,0.10
2023-04-06T15:17:30.868Z,0.77
2023-04-06T15:19:59.372Z,0.20
2023-04-06T15:22:28.039Z,0.20
2023-04-06T15:24:57.718Z,0.10
2023-04-06T15:27:26.684Z,0.00
2023-04-06T15:29:55.735Z,0.10
2023-04-06T15:32:24.211Z,0.33
2023-04-06T15:34:52.742Z,0.40
2023-04-06T15:37:21.398Z,0.30
2023-04-06T15:39:49.813Z,0.97
2023-04-06T15:42:19.491Z,0.37
2023-04-06T15:44:47.893Z,0.10
2023-04-06T15:47:16.559Z,0.00
2023-04-06T15:49:44.870Z,0.00
2023-04-06T15:52:13.264Z,0.00
2023-04-06T15:54:42.078Z,0.33
2023-04-06T15:57:10.913Z,0.23
2023-04-06T15:59:40.764Z,0.00
2023-04-06T16:02:09.321Z,0.10
2023-04-06T16:04:37.947Z,0.60
2023-04-06T16:07:06.923Z,0.10
2023-04-06T16:09:35.480Z,0.20
2023-04-06T16:12:04.003Z,0.53
2023-04-06T16:14:32.699Z,0.20
2023-04-06T16:17:02.340Z,0.07
2023-04-06T16:19:30.880Z,0.30
2023-04-06T16:21:59.179Z,0.10
2023-04-06T16:24:27.597Z,0.27
2023-04-06T16:26:56.691Z,0.03
2023-04-06T16:29:25.269Z,0.40
2023-04-06T16:31:53.785Z,0.30
2023-04-06T16:34:23.450Z,0.30
2023-04-06T16:36:52.726Z,0.00
2023-04-06T16:39:21.248Z,2.77
2023-04-06T16:41:49.734Z,0.10
2023-04-06T16:44:18.073Z,0.00
2023-04-06T16:46:47.001Z,0.10
2023-04-06T16:49:17.519Z,0.13
2023-04-06T16:51:47.189Z,0.00
2023-04-06T16:54:15.956Z,0.20
2023-04-06T16:56:44.396Z,1.43
2023-04-06T16:59:12.868Z,0.03
2023-04-06T17:01:41.904Z,0.00
2023-04-06T17:04:10.639Z,0.20
2023-04-06T17:06:39.417Z,0.30
2023-04-06T17:09:09.066Z,0.10
2023-04-06T17:11:46.085Z,0.00
2023-04-06T17:14:15.449Z,0.00
2023-04-06T17:16:44.170Z,0.00
2023-04-06T17:19:12.650Z,0.10
2023-04-06T17:21:41.729Z,0.20
2023-04-06T17:24:12.213Z,0.00
2023-04-06T17:26:41.559Z,0.00
2023-04-06T17:29:10.151Z,0.10
2023-04-06T17:31:38.697Z,0.13
2023-04-06T17:34:07.234Z,0.00
2023-04-06T17:36:35.708Z,0.23
2023-04-06T17:39:04.143Z,0.10
2023-04-06T17:41:34.816Z,1.03
2023-04-06T17:44:03.385Z,1.13
2023-04-06T17:46:32.238Z,0.17
2023-04-06T17:49:00.766Z,0.20
2023-04-06T17:51:29.304Z,0.10
2023-04-06T17:53:57.866Z,0.00
2023-04-06T17:56:26.525Z,0.20
2023-04-06T17:58:58.480Z,0.00
2023-04-06T18:01:27.038Z,0.07
2023-04-06T18:03:55.494Z,0.43
2023-04-06T18:06:25.755Z,0.87
2023-04-06T18:08:55.766Z,0.10
2023-04-06T18:11:25.813Z,0.10
2023-04-06T18:13:54.348Z,0.23
2023-04-06T18:16:24.380Z,0.10
2023-04-06T18:18:52.898Z,0.17
2023-04-06T18:21:21.357Z,0.30
2023-04-06T18:23:49.907Z,0.53
2023-04-06T18:26:19.744Z,0.10
2023-04-06T18:28:48.972Z,19.43
2023-04-06T18:31:18.417Z,34.30
2023-04-06T18:33:50.290Z,33.07
2023-04-06T18:36:20.282Z,38.00
2023-04-06T18:38:49.559Z,32.37
2023-04-06T18:41:20.741Z,25.90
2023-04-06T18:43:49.141Z,32.17
2023-04-06T18:46:20.441Z,29.93
2023-04-06T18:48:50.381Z,33.33
2023-04-06T18:51:18.883Z,35.87
2023-04-06T18:53:47.293Z,24.30
2023-04-06T18:56:16.513Z,22.37
2023-04-06T18:58:45.091Z,31.53
2023-04-06T19:01:22.111Z,21.27
2023-04-06T19:03:52.641Z,26.83
2023-04-06T19:06:21.873Z,19.77
2023-04-06T19:08:50.578Z,29.23
2023-04-06T19:11:19.798Z,25.20
2023-04-06T19:13:50.213Z,26.30
2023-04-06T19:16:19.828Z,24.53
2023-04-06T19:18:48.369Z,26.33
2023-04-06T19:21:18.926Z,24.20
2023-04-06T19:23:48.449Z,20.80
2023-04-06T19:26:17.709Z,19.43
2023-04-06T19:28:46.806Z,22.17
2023-04-06T19:31:17.603Z,25.67
2023-04-06T19:33:46.911Z,13.07
2023-04-06T19:36:15.621Z,8.63
2023-04-06T19:38:45.428Z,16.67
2023-04-06T19:41:13.811Z,13.93
2023-04-06T19:43:42.234Z,16.90
2023-04-06T19:46:10.965Z,14.53
2023-04-06T19:48:39.511Z,12.70
2023-04-06T19:51:09.230Z,14.23
2023-04-06T19:53:37.782Z,14.97
2023-04-06T19:56:07.468Z,11.53
2023-04-06T19:58:36.157Z,12.37
2023-04-06T20:01:05.092Z,11.30
2023-04-06T20:03:33.758Z,12.73
2023-04-06T20:06:02.445Z,18.77
2023-04-06T20:08:30.890Z,23.50
2023-04-06T20:11:02.867Z,12.73
2023-04-06T20:13:32.496Z,12.53
2023-04-06T20:16:01.015Z,19.00
2023-04-06T20:18:29.596Z,13.23
2023-04-06T20:20:58.057Z,12.47
2023-04-06T20:23:27.398Z,8.30
2023-04-06T20:25:55.841Z,8.97
2023-04-06T20:28:24.462Z,9.37
2023-04-06T20:30:54.856Z,7.00
2023-04-06T20:33:24.162Z,7.90
2023-04-06T20:35:58.438Z,6.77
2023-04-06T20:38:33.271Z,10.80
2023-04-06T20:41:02.538Z,7.37
2023-04-06T20:43:31.862Z,11.30
2023-04-06T20:46:02.718Z,14.03
2023-04-06T20:48:33.640Z,10.53
2023-04-06T20:51:04.006Z,12.37
2023-04-06T20:53:32.480Z,16.40
2023-04-06T20:56:02.700Z,14.43
2023-04-06T20:58:31.222Z,11.53
2023-04-06T21:01:01.171Z,16.43
2023-04-06T21:03:30.065Z,14.70
2023-04-06T21:05:59.908Z,10.73
2023-04-06T21:08:28.647Z,13.53
2023-04-06T21:10:57.101Z,13.30
2023-04-06T21:13:25.539Z,12.20
2023-04-06T21:15:54.308Z,13.87
2023-04-06T21:18:24.589Z,17.03
2023-04-06T21:20:52.902Z,11.00
2023-04-06T21:23:21.787Z,9.40
2023-04-06T21:25:51.969Z,13.63
2023-04-06T21:28:20.760Z,11.20
2023-04-06T21:30:52.040Z,9.40
2023-04-06T21:33:20.570Z,10.33
2023-04-06T21:35:50.392Z,5.67
2023-04-06T21:38:18.800Z,2.73
2023-04-06T21:40:54.716Z,4.37
2023-04-06T21:43:23.156Z,5.90
2023-04-06T21:45:51.905Z,4.43
2023-04-06T21:48:20.690Z,7.30
2023-04-06T21:50:50.430Z,7.67
2023-04-06T21:53:18.725Z,5.13
2023-04-06T21:55:47.527Z,7.50
2023-04-06T21:58:17.086Z,9.93
2023-04-06T22:00:46.347Z,7.97
2023-04-06T22:03:14.974Z,8.13
2023-04-06T22:05:43.689Z,13.77
2023-04-06T22:08:25.410Z,7.93
2023-04-06T22:10:58.806Z,13.80
2023-04-06T22:13:27.995Z,14.23
2023-04-06T22:15:56.479Z,9.77
2023-04-06T22:18:25.233Z,13.33
2023-04-06T22:20:54.483Z,9.63
2023-04-06T22:23:24.218Z,12.97
2023-04-06T22:25:53.620Z,12.00
2023-04-06T22:28:22.317Z,14.87
2023-04-06T22:30:50.773Z,18.73
2023-04-06T22:33:19.029Z,13.27
2023-04-06T22:35:47.534Z,11.03
2023-04-06T22:38:16.290Z,14.53
2023-04-06T22:40:45.960Z,14.17
2023-04-06T22:43:14.469Z,14.40
2023-04-06T22:45:42.869Z,19.00
2023-04-06T22:48:11.698Z,17.87
2023-04-06T22:50:40.439Z,19.17
2023-04-06T22:53:08.940Z,15.53
2023-04-06T22:55:39.958Z,19.77
2023-04-06T22:58:09.745Z,15.27
2023-04-06T23:00:38.271Z,19.80
2023-04-06T23:03:07.112Z,16.30
2023-04-06T23:05:35.640Z,19.87
2023-04-06T23:08:04.623Z,21.03
2023-04-06T23:10:33.030Z,24.57
2023-04-06T23:13:01.440Z,21.07
2023-04-06T23:15:31.261Z,20.80
2023-04-06T23:17:59.983Z,17.53
2023-04-06T23:20:28.494Z,23.13
2023-04-06T23:22:56.910Z,17.53
2023-04-06T23:25:25.576Z,18.67
2023-04-06T23:27:54.406Z,26.07
2023-04-06T23:30:22.872Z,27.53
2023-04-06T23:32:52.496Z,20.33
2023-04-06T23:35:20.906Z,23.80
2023-04-06T23:37:49.358Z,19.70
2023-04-06T23:40:18.163Z,24.13
2023-04-06T23:42:46.733Z,25.97
2023-04-06T23:45:15.249Z,21.90
2023-04-06T23:47:43.953Z,27.27
2023-04-06T23:50:14.025Z,20.37
2023-04-06T23:52:42.520Z,24.23
2023-04-06T23:55:11.470Z,18.77
2023-04-06T23:57:40.412Z,21.40
